Nearby METAR Reports

 

LERS - Reus, Tarragona, España
Actualizado: 15/07/2024 16:00
Parcialmente nuboso
Parcialmente nuboso
 Viento desde S
Viento: S 11 km/h
Temperatura: 29°C
Humidex: 32°C
Punto Rocío: 23°C
Humedad: 70%
Barometro: 1012 hPa
Nubes: Parcialmente nuboso
Visibilidad: 10 km
Detalle nubes: Parcialmente nuboso 732 m
2024/07/15 14:00 LERS 151400Z 17006KT 100V240 9999 SCT024 29/23 Q1012
LEMD - Barajas, Madrid, España
Actualizado: 15/07/2024 16:00
Parcialmente nuboso
Parcialmente nuboso
 Viento desde SO
Viento: SO 33 km/h, Ráfaga: 61 km/h
Temperatura: 31°C
Punto Rocío: 15°C
Humedad: 38%
Barometro: 1015 hPa
Nubes: Parcialmente nuboso
Visibilidad: 10 km
Detalle nubes: Parcialmente nuboso 1524 m
2024/07/15 14:00 LEMD 151400Z 22018G33KT 200V270 9999 SCT050 31/15 Q1015 WS R14R WS R18L NOSIG
 
LEVC - Manises, Valencia, España
Actualizado: 15/07/2024 16:00
Few Clouds
Few Clouds
 Viento desde ESE
Viento: ESE 17 km/h
Temperatura: 32°C
Humidex: 36°C
Punto Rocío: 22°C
Humedad: 55%
Barometro: 1010 hPa
Nubes: Few Clouds
Visibilidad: 10 km
Detalle nubes: Few Clouds 762 m
2024/07/15 14:00 LEVC 151400Z 11009KT 080V140 9999 FEW025 32/22 Q1010 NOSIG
LEBL - El Prat, Barcelona, España
Actualizado: 15/07/2024 16:00
Few Clouds
Few Clouds
 Viento desde SSO
Viento: SSO 26 km/h
Temperatura: 27°C
Humidex: 30°C
Punto Rocío: 23°C
Humedad: 79%
Barometro: 1011 hPa
Nubes: Few Clouds
Visibilidad: 10 km
Detalle nubes: Few Clouds 914 m
2024/07/15 14:00 LEBL 151400Z 21014KT 9999 FEW030 27/23 Q1011 NOSIG
 
LEAL - Altet, Alicante, España
Actualizado: 15/07/2024 16:00
Despejado
Despejado
 Viento desde E
Viento: E 15 km/h
Temperatura: 31°C
Humidex: 35°C
Punto Rocío: 22°C
Humedad: 59%
Barometro: 1012 hPa
Estado del cielo: Despejado
Visibilidad: mayor a 10 km
2024/07/15 14:00 LEAL 151400Z 09008KT 060V150 CAVOK 31/22 Q1012 NOSIG
LEZG - Zaragoza, Zaragoza, España
Actualizado: 15/07/2024 16:00
Despejado
Despejado
 Viento desde NNO
Viento: NNO 15 km/h
Temperatura: 35°C
Punto Rocío: 10°C
Humedad: 22%
Barometro: 1011 hPa
Estado del cielo: Despejado
Visibilidad: mayor a 10 km
2024/07/15 14:00 LEZG 151400Z 33008KT 300V010 CAVOK 35/10 Q1011 NOSIG
 
LFPG - Paris, Francia, Francia
Actualizado: 15/07/2024 16:00
Muy nuboso
Muy nuboso
 Viento desde N
Viento: N 7 km/h
Temperatura: 26°C
Punto Rocío: 15°C
Humedad: 51%
Barometro: 1008 hPa
Nubes: Muy nuboso
Visibilidad: 10 km
Detalle nubes: Few Clouds 1006 m
Muy nuboso 2438 m
2024/07/15 14:00 LFPG 151400Z 35004KT 310V020 9999 FEW033TCU BKN080 26/15 Q1008 NOSIG
LPPT - Lisboa, Portugal
Actualizado: 15/07/2024 16:00
Few Clouds
Few Clouds
 Viento desde NNO
Viento: NNO 19 km/h
Temperatura: 25°C
Punto Rocío: 13°C
Humedad: 47%
Barometro: 1018 hPa
Nubes: Few Clouds
Visibilidad: 10 km
Detalle nubes: Few Clouds 1158 m
2024/07/15 14:00 LPPT 151400Z 33010KT 290V020 9999 FEW038 25/13 Q1018
 
EDDT - Berlin, Alemania
Actualizado: 09/11/2020 07:50
SIN datos actuales
Mist, Cubierto
Mist, Cubierto
 Viento desde E
Viento: E 11 km/h
Temperatura: 6°C
Sens. Térmica: 4°C
Punto Rocío: 5°C
Humedad: 93%
Barometro: 1027 hPa
Estado del cielo: Mist
Nubes: Cubierto
Visibilidad: 3 km
Detalle nubes: Cubierto 91 m
2020/11/09 06:50 EDDT 090650Z 09006KT 050V120 3000 BR OVC003 06/05 Q1027
KHAF - Half Moon Bay, California, USA
Actualizado: 15/07/2024 15:55
Cubierto
Cubierto
 Viento desde S
Viento: S 6 km/h
Temperatura: 14°C
Punto Rocío: 13°C
Humedad: 94%
Barometro: 1018.6 hPa
Nubes: Cubierto
Visibilidad: 14 km
Detalle nubes: Cubierto 274 m
2024/07/15 13:55 KHAF 151355Z AUTO 19003KT 9SM OVC009 14/13 A3008 RMK AO2
 
KHWD - Hayward, California, USA
Actualizado: 15/07/2024 15:54
Cubierto
Cubierto
 Viento desde ONO
Viento: ONO 13 km/h
Temperatura: 16°C
Punto Rocío: 12°C
Humedad: 77%
Barometro: 1017.9 hPa
Nubes: Cubierto
Visibilidad: 16 km
Detalle nubes: Cubierto 366 m
2024/07/15 13:54 KHWD 151354Z 30007KT 10SM OVC012 16/12 A3006 RMK AO2 SLP188 T01560117
KLVK - Livermore, California,
Actualizado: 15/07/2024 15:53
Muy nuboso
Muy nuboso
 Viento desde ONO
Viento: ONO 17 km/h
Temperatura: 14°C
Punto Rocío: 12°C
Humedad: 88%
Barometro: 1017.6 hPa
Nubes: Muy nuboso
Visibilidad: 14 km
Detalle nubes: Muy nuboso 396 m
2024/07/15 13:53 KLVK 151353Z 30009KT 9SM BKN013 14/12 A3005 RMK AO2 SLP172 T01440122